Fountain, MN

7:52 PM CDT on September 19, 2014 (GMT -0500)
Preston | Change Station
CLOSE
Current Station
Airport
Location: Preston,
Elevation: 1276 ft
Nearby Weather Stations

Elev 1276 ft 43.68 °N, 92.17 °W | Updated 17 minutes ago

Clear
Clear
69 °F
Feels Like 69 °F
N
10
Wind Variable Wind from SSW

Today
High -- | Low -- °F
--% Chance of Precip.
Yesterday
High -- | Low -- °F
Precip. -- in
6:52 AM 7:11 PM
Waning Crescent, 16% visible
Pressure 29.81 in
Visibility 10.0 miles
Clouds Clear
Dew Point 64 °F
Humidity 83%
Rainfall 0.00 in
Snow Depth Not available.
UV 0 out of 12
Pollen 4.50 out of 12
Air Quality Not available.
Flu Activity Not available.
METAR KFKA 200035Z AUTO 20009KT 10SM CLR 21/18 A2981 RMK AO2 T02050176

More Conditions Fewer Conditions

Pressure 29.81 in
Visibility 10.0 miles
Clouds Clear
Dew Point 64 °F
Humidity 83%
Rainfall 0.00 in
Snow Depth Not available.
UV 0 out of 12
Pollen 4.50 out of 12
Air Quality Not available.
Flu Activity Not available.
METAR KFKA 200035Z AUTO 20009KT 10SM CLR 21/18 A2981 RMK AO2 T02050176

More Conditions Fewer Conditions

10-Day Weather Forecast

Almanac

Astronomy

Sep. 19, 2014 Rise Set
Actual Time 6:52 AM CDT 7:11 PM CDT
Civil Twilight 6:23 AM CDT 7:40 PM CDT
Nautical Twilight 5:49 AM CDT 8:13 PM CDT
Astronomical Twilight 5:15 AM CDT 8:48 PM CDT
Moon 2:31 AM CDT (9/19) 4:46 PM CDT (9/19)
Length of Visible Light 13h 16m
Length of Day
12h 19m
Tomorrow will be 2m 58s shorter.
Waning Crescent, 16% of the Moon is Illuminated
Today
Waning Crescent
Sep 24
New
Oct 1
First Quarter
Oct 8
Full
Oct 15
Last Quarter

Today's Extremes

State Highs State Lows

Community

WunderPhotos

Upload Photos

1,754,744 photos uploaded!

WunderBlogs® & News

Nearby

Snow Depth

Station Depth Elevation
No new snow has been reported.

Earthquake Activity

City Distance Mag. Time & Date
No recent earthquake activity has been reported nearby.
Minimum magnitude displayed is 2.5.

Coastal Water Temperatures

Place Temperature
No Stations Reporting

Nearby Weather Stations